Portada
METAR-TAF:

METAR-TAF

Aeropuertos :

Aeropuerto Internacional Juan Santamaría

San José, Costa Rica

latitud: 10-00N, longitud: 084-13W, altitud: 920 m

Observación

El informe se hizo hace 16 minutos, a las 13:00 UTC
Viento 14 kt del este-sureste con ráfagas de 26 kt
Temperatura 20°C
Humedad 68%
Presión 1017 hPa
Visibilidad 10 km o más
sin nubes por debajo de 1500 m y sin presencia de cumulonimbus.

METAR: MROC 031300Z 11014G26KT CAVOK 20/14 A3002 NOSIG

Hora: 07:16 (13:16 UTC)

Pronóstico

El informe se hizo hace 1 hora y 26 minutos, a las 11:50 UTC
Pronóstico válido del 03 a las 12 UTC al 04 a las 12 UTC
Viento 15 kt del este con ráfagas de 25 kt
Visibilidad 10 km o más
Escasas nubes a una altura de 4000 ft
Temporalmente
del 03 a las 14 UTC al 03 a las 24 UTC
Viento 20 kt del este con ráfagas de 30 kt

TAF: MROC 031150Z 0312/0412 08015G25KT 9999 FEW040 TX29/0319Z TN19/0411Z TEMPO 0314/0324 09020G30KT

Observaciones y pronósticos meteorológicos de más de 4000 aeropuertos (mensajes METAR y TAF).

Los puntos amarillos y rojos representan las estaciones disponibles.

Ponga el ratón en el punto deseado para ver el nombre de la estación.

Haga clic para ver las observaciones y los pronósticos meteorológicos.

Para cambiar el mapa : haga clic en los botones verdes con una cruz de color negro para hacer un zoom, en el botón verde con un guión para alejar o en las flechas verdes para mapas adyacentes.


METAR-TAF: